sensor_id;sensor_type;location;lat;lon;timestamp;pressure;altitude;pressure_sealevel;temperature;humidity
54512;BME280;40419;47.438;19.026;2022-11-20T00:01:21;99487.41;;;0.86;100.00
54512;BME280;40419;47.438;19.026;2022-11-20T00:03:47;99476.19;;;0.64;100.00
54512;BME280;40419;47.438;19.026;2022-11-20T00:06:17;99477.44;;;0.70;100.00
54512;BME280;40419;47.438;19.026;2022-11-20T00:08:45;99481.88;;;0.79;100.00
54512;BME280;40419;47.438;19.026;2022-11-20T00:11:20;99488.28;;;0.86;100.00
54512;BME280;40419;47.438;19.026;2022-11-20T00:13:48;99490.50;;;0.63;100.00
54512;BME280;40419;47.438;19.026;2022-11-20T00:16:16;99498.44;;;0.73;100.00
54512;BME280;40419;47.438;19.026;2022-11-20T00:18:44;99500.81;;;0.48;100.00
54512;BME280;40419;47.438;19.026;2022-11-20T00:21:21;99499.00;;;0.49;100.00
54512;BME280;40419;47.438;19.026;2022-11-20T00:23:47;99517.81;;;0.38;100.00
54512;BME280;40419;47.438;19.026;2022-11-20T00:26:19;99526.66;;;0.38;100.00
54512;BME280;40419;47.438;19.026;2022-11-20T00:28:57;99518.31;;;0.51;100.00
54512;BME280;40419;47.438;19.026;2022-11-20T00:31:24;99505.50;;;0.64;100.00
54512;BME280;40419;47.438;19.026;2022-11-20T00:33:50;99519.03;;;0.53;100.00
54512;BME280;40419;47.438;19.026;2022-11-20T00:36:20;99536.00;;;0.52;100.00
54512;BME280;40419;47.438;19.026;2022-11-20T00:38:46;99530.13;;;0.48;100.00
54512;BME280;40419;47.438;19.026;2022-11-20T00:41:15;99533.03;;;0.55;100.00
54512;BME280;40419;47.438;19.026;2022-11-20T00:43:44;99512.91;;;0.43;100.00
54512;BME280;40419;47.438;19.026;2022-11-20T00:46:17;99510.03;;;0.54;100.00
54512;BME280;40419;47.438;19.026;2022-11-20T00:48:51;99505.59;;;0.45;100.00
54512;BME280;40419;47.438;19.026;2022-11-20T00:51:26;99502.31;;;0.61;100.00
54512;BME280;40419;47.438;19.026;2022-11-20T00:53:52;99501.94;;;0.46;100.00
54512;BME280;40419;47.438;19.026;2022-11-20T00:56:19;99503.50;;;0.39;100.00
54512;BME280;40419;47.438;19.026;2022-11-20T00:58:48;99493.72;;;0.29;100.00
54512;BME280;40419;47.438;19.026;2022-11-20T01:01:34;99492.19;;;0.37;100.00
54512;BME280;40419;47.438;19.026;2022-11-20T01:04:01;99495.75;;;0.45;100.00
54512;BME280;40419;47.438;19.026;2022-11-20T01:06:29;99492.31;;;0.35;100.00
54512;BME280;40419;47.438;19.026;2022-11-20T01:08:57;99496.91;;;0.43;100.00
54512;BME280;40419;47.438;19.026;2022-11-20T01:11:25;99500.69;;;0.68;100.00
54512;BME280;40419;47.438;19.026;2022-11-20T01:13:56;99504.59;;;0.46;100.00
54512;BME280;40419;47.438;19.026;2022-11-20T01:16:28;99507.00;;;0.39;100.00
54512;BME280;40419;47.438;19.026;2022-11-20T01:19:03;99510.09;;;0.34;100.00
54512;BME280;40419;47.438;19.026;2022-11-20T01:21:42;99497.22;;;0.30;100.00
54512;BME280;40419;47.438;19.026;2022-11-20T01:24:16;99508.06;;;0.56;100.00
54512;BME280;40419;47.438;19.026;2022-11-20T01:26:43;99507.97;;;0.48;100.00
54512;BME280;40419;47.438;19.026;2022-11-20T01:29:21;99511.88;;;0.53;100.00
54512;BME280;40419;47.438;19.026;2022-11-20T01:31:52;99512.31;;;0.39;100.00
54512;BME280;40419;47.438;19.026;2022-11-20T01:34:21;99506.97;;;0.49;100.00
54512;BME280;40419;47.438;19.026;2022-11-20T01:36:52;99491.19;;;0.65;100.00
54512;BME280;40419;47.438;19.026;2022-11-20T01:39:25;99494.25;;;0.70;100.00
54512;BME280;40419;47.438;19.026;2022-11-20T01:41:57;99487.13;;;0.71;100.00
54512;BME280;40419;47.438;19.026;2022-11-20T01:44:52;99494.16;;;0.62;100.00
54512;BME280;40419;47.438;19.026;2022-11-20T01:50:04;99489.00;;;0.51;100.00
54512;BME280;40419;47.438;19.026;2022-11-20T01:52:41;99470.88;;;0.64;100.00
54512;BME280;40419;47.438;19.026;2022-11-20T01:55:29;99477.75;;;0.57;100.00
54512;BME280;40419;47.438;19.026;2022-11-20T01:57:56;99476.88;;;0.66;100.00
54512;BME280;40419;47.438;19.026;2022-11-20T02:00:23;99476.19;;;0.64;100.00
54512;BME280;40419;47.438;19.026;2022-11-20T02:02:57;99474.63;;;0.72;100.00
54512;BME280;40419;47.438;19.026;2022-11-20T02:05:28;99476.53;;;0.79;100.00
54512;BME280;40419;47.438;19.026;2022-11-20T02:07:57;99476.59;;;0.69;100.00
54512;BME280;40419;47.438;19.026;2022-11-20T02:10:26;99481.63;;;0.73;100.00
54512;BME280;40419;47.438;19.026;2022-11-20T02:12:52;99482.69;;;0.80;100.00
54512;BME280;40419;47.438;19.026;2022-11-20T02:15:39;99489.50;;;0.64;100.00
54512;BME280;40419;47.438;19.026;2022-11-20T02:18:05;99476.59;;;0.69;100.00
54512;BME280;40419;47.438;19.026;2022-11-20T02:20:32;99493.91;;;0.56;100.00
54512;BME280;40419;47.438;19.026;2022-11-20T02:25:54;99490.31;;;0.75;100.00
54512;BME280;40419;47.438;19.026;2022-11-20T02:28:21;99487.97;;;0.62;100.00
54512;BME280;40419;47.438;19.026;2022-11-20T02:30:49;99485.88;;;0.65;100.00
54512;BME280;40419;47.438;19.026;2022-11-20T02:33:15;99472.00;;;0.62;100.00
54512;BME280;40419;47.438;19.026;2022-11-20T02:35:45;99468.00;;;0.76;100.00
54512;BME280;40419;47.438;19.026;2022-11-20T02:38:12;99471.88;;;0.81;100.00
54512;BME280;40419;47.438;19.026;2022-11-20T02:40:41;99471.13;;;0.71;100.00
54512;BME280;40419;47.438;19.026;2022-11-20T02:43:09;99473.16;;;0.59;100.00
54512;BME280;40419;47.438;19.026;2022-11-20T02:45:35;99463.84;;;0.63;100.00
54512;BME280;40419;47.438;19.026;2022-11-20T02:48:01;99465.50;;;0.74;100.00
54512;BME280;40419;47.438;19.026;2022-11-20T02:50:30;99480.13;;;0.60;100.00
54512;BME280;40419;47.438;19.026;2022-11-20T02:53:01;99472.25;;;0.68;100.00
54512;BME280;40419;47.438;19.026;2022-11-20T02:55:29;99472.56;;;0.65;100.00
54512;BME280;40419;47.438;19.026;2022-11-20T02:57:54;99457.50;;;0.74;100.00
54512;BME280;40419;47.438;19.026;2022-11-20T03:00:20;99452.47;;;0.71;100.00
54512;BME280;40419;47.438;19.026;2022-11-20T03:02:48;99444.63;;;0.69;100.00
54512;BME280;40419;47.438;19.026;2022-11-20T03:05:15;99439.91;;;0.81;100.00
54512;BME280;40419;47.438;19.026;2022-11-20T03:07:43;99435.56;;;0.80;100.00
54512;BME280;40419;47.438;19.026;2022-11-20T03:10:09;99442.06;;;0.96;100.00
54512;BME280;40419;47.438;19.026;2022-11-20T03:12:39;99437.31;;;0.72;100.00
54512;BME280;40419;47.438;19.026;2022-11-20T03:15:08;99437.53;;;0.78;100.00
54512;BME280;40419;47.438;19.026;2022-11-20T03:17:33;99444.03;;;1.12;100.00
54512;BME280;40419;47.438;19.026;2022-11-20T03:20:02;99451.28;;;1.01;100.00
54512;BME280;40419;47.438;19.026;2022-11-20T03:22:30;99468.38;;;0.81;100.00
54512;BME280;40419;47.438;19.026;2022-11-20T03:25:00;99472.59;;;0.83;100.00
54512;BME280;40419;47.438;19.026;2022-11-20T03:27:26;99480.31;;;1.04;100.00
54512;BME280;40419;47.438;19.026;2022-11-20T03:29:53;99482.03;;;0.96;100.00
54512;BME280;40419;47.438;19.026;2022-11-20T03:32:19;99469.41;;;0.98;100.00
54512;BME280;40419;47.438;19.026;2022-11-20T03:34:44;99457.53;;;0.92;100.00
54512;BME280;40419;47.438;19.026;2022-11-20T03:37:10;99452.31;;;0.91;100.00
54512;BME280;40419;47.438;19.026;2022-11-20T03:39:35;99453.78;;;0.85;100.00
54512;BME280;40419;47.438;19.026;2022-11-20T03:42:03;99454.59;;;0.85;100.00
54512;BME280;40419;47.438;19.026;2022-11-20T03:44:49;99443.59;;;0.98;100.00
54512;BME280;40419;47.438;19.026;2022-11-20T03:47:15;99451.59;;;0.98;100.00
54512;BME280;40419;47.438;19.026;2022-11-20T03:49:45;99452.31;;;0.91;100.00
54512;BME280;40419;47.438;19.026;2022-11-20T03:52:13;99448.75;;;0.82;100.00
54512;BME280;40419;47.438;19.026;2022-11-20T03:54:38;99450.09;;;0.86;100.00
54512;BME280;40419;47.438;19.026;2022-11-20T03:57:08;99457.81;;;0.89;100.00
54512;BME280;40419;47.438;19.026;2022-11-20T03:59:34;99452.56;;;0.97;100.00
54512;BME280;40419;47.438;19.026;2022-11-20T04:01:59;99439.91;;;0.99;100.00
54512;BME280;40419;47.438;19.026;2022-11-20T04:04:25;99446.25;;;0.98;100.00
54512;BME280;40419;47.438;19.026;2022-11-20T04:06:50;99450.59;;;0.99;100.00
54512;BME280;40419;47.438;19.026;2022-11-20T04:09:18;99436.34;;;1.09;100.00
54512;BME280;40419;47.438;19.026;2022-11-20T04:11:43;99426.69;;;1.08;100.00
54512;BME280;40419;47.438;19.026;2022-11-20T04:14:15;99418.53;;;1.09;100.00
54512;BME280;40419;47.438;19.026;2022-11-20T04:16:41;99427.06;;;1.13;100.00
54512;BME280;40419;47.438;19.026;2022-11-20T04:19:15;99408.03;;;1.08;100.00
54512;BME280;40419;47.438;19.026;2022-11-20T04:21:44;99414.06;;;1.36;100.00
54512;BME280;40419;47.438;19.026;2022-11-20T04:24:09;99411.88;;;1.13;100.00
54512;BME280;40419;47.438;19.026;2022-11-20T04:26:41;99419.19;;;0.93;100.00
54512;BME280;40419;47.438;19.026;2022-11-20T04:29:06;99411.28;;;1.01;100.00
54512;BME280;40419;47.438;19.026;2022-11-20T04:31:36;99412.50;;;1.07;100.00
54512;BME280;40419;47.438;19.026;2022-11-20T04:34:03;99411.66;;;1.06;100.00
54512;BME280;40419;47.438;19.026;2022-11-20T04:36:32;99423.06;;;0.81;100.00
54512;BME280;40419;47.438;19.026;2022-11-20T04:39:11;99424.97;;;0.88;100.00
54512;BME280;40419;47.438;19.026;2022-11-20T04:41:38;99430.47;;;0.87;100.00
54512;BME280;40419;47.438;19.026;2022-11-20T04:44:05;99417.09;;;1.15;100.00
54512;BME280;40419;47.438;19.026;2022-11-20T04:46:39;99414.56;;;0.95;100.00
54512;BME280;40419;47.438;19.026;2022-11-20T04:49:05;99408.47;;;0.85;100.00
54512;BME280;40419;47.438;19.026;2022-11-20T04:51:34;99395.97;;;0.85;100.00
54512;BME280;40419;47.438;19.026;2022-11-20T04:54:04;99399.94;;;0.99;100.00
54512;BME280;40419;47.438;19.026;2022-11-20T04:56:30;99402.59;;;0.81;100.00
54512;BME280;40419;47.438;19.026;2022-11-20T04:59:02;99388.75;;;0.96;100.00
54512;BME280;40419;47.438;19.026;2022-11-20T05:01:30;99385.09;;;0.97;100.00
54512;BME280;40419;47.438;19.026;2022-11-20T05:03:58;99399.00;;;0.91;100.00
54512;BME280;40419;47.438;19.026;2022-11-20T05:06:29;99417.47;;;1.02;100.00
54512;BME280;40419;47.438;19.026;2022-11-20T05:08:57;99414.72;;;0.94;100.00
54512;BME280;40419;47.438;19.026;2022-11-20T05:11:27;99409.25;;;0.95;100.00
54512;BME280;40419;47.438;19.026;2022-11-20T05:13:58;99409.66;;;0.91;100.00
54512;BME280;40419;47.438;19.026;2022-11-20T05:16:28;99409.41;;;0.94;100.00
54512;BME280;40419;47.438;19.026;2022-11-20T05:18:58;99403.31;;;1.01;100.00
54512;BME280;40419;47.438;19.026;2022-11-20T05:21:29;99392.31;;;1.04;100.00
54512;BME280;40419;47.438;19.026;2022-11-20T05:23:55;99398.63;;;1.21;100.00
54512;BME280;40419;47.438;19.026;2022-11-20T05:26:25;99394.69;;;1.08;100.00
54512;BME280;40419;47.438;19.026;2022-11-20T05:28:53;99384.94;;;1.16;100.00
54512;BME280;40419;47.438;19.026;2022-11-20T05:31:21;99370.59;;;0.99;100.00
54512;BME280;40419;47.438;19.026;2022-11-20T05:33:49;99370.00;;;1.05;100.00
54512;BME280;40419;47.438;19.026;2022-11-20T05:36:15;99375.16;;;1.07;100.00
54512;BME280;40419;47.438;19.026;2022-11-20T05:38:41;99373.03;;;1.11;100.00
54512;BME280;40419;47.438;19.026;2022-11-20T05:43:38;99382.81;;;1.02;100.00
54512;BME280;40419;47.438;19.026;2022-11-20T05:46:05;99379.47;;;1.00;100.00
54512;BME280;40419;47.438;19.026;2022-11-20T05:48:32;99376.03;;;1.08;100.00
54512;BME280;40419;47.438;19.026;2022-11-20T05:50:59;99373.56;;;0.96;100.00
54512;BME280;40419;47.438;19.026;2022-11-20T05:53:25;99384.34;;;1.04;100.00
54512;BME280;40419;47.438;19.026;2022-11-20T05:56:09;99393.16;;;1.23;100.00
54512;BME280;40419;47.438;19.026;2022-11-20T05:58:38;99409.75;;;1.17;100.00
54512;BME280;40419;47.438;19.026;2022-11-20T06:03:40;99390.84;;;1.10;100.00
54512;BME280;40419;47.438;19.026;2022-11-20T06:06:08;99398.28;;;1.16;100.00
54512;BME280;40419;47.438;19.026;2022-11-20T06:08:34;99408.16;;;1.24;100.00
54512;BME280;40419;47.438;19.026;2022-11-20T06:11:05;99409.50;;;1.28;100.00
54512;BME280;40419;47.438;19.026;2022-11-20T06:13:36;99394.44;;;1.19;100.00
54512;BME280;40419;47.438;19.026;2022-11-20T06:16:17;99391.47;;;1.22;100.00
54512;BME280;40419;47.438;19.026;2022-11-20T06:18:46;99403.81;;;1.23;100.00
54512;BME280;40419;47.438;19.026;2022-11-20T06:21:17;99391.53;;;1.30;100.00
54512;BME280;40419;47.438;19.026;2022-11-20T06:23:47;99384.16;;;1.24;100.00
54512;BME280;40419;47.438;19.026;2022-11-20T06:26:16;99396.88;;;1.30;100.00
54512;BME280;40419;47.438;19.026;2022-11-20T06:28:42;99411.88;;;1.31;100.00
54512;BME280;40419;47.438;19.026;2022-11-20T06:31:13;99415.72;;;1.11;100.00
54512;BME280;40419;47.438;19.026;2022-11-20T06:33:44;99418.53;;;1.27;100.00
54512;BME280;40419;47.438;19.026;2022-11-20T06:36:11;99425.91;;;1.33;100.00
54512;BME280;40419;47.438;19.026;2022-11-20T06:38:38;99432.88;;;1.52;100.00
54512;BME280;40419;47.438;19.026;2022-11-20T06:41:10;99445.69;;;1.49;100.00
54512;BME280;40419;47.438;19.026;2022-11-20T06:43:36;99433.00;;;1.69;100.00
54512;BME280;40419;47.438;19.026;2022-11-20T06:46:06;99432.16;;;1.42;100.00
54512;BME280;40419;47.438;19.026;2022-11-20T06:48:33;99441.28;;;1.57;100.00
54512;BME280;40419;47.438;19.026;2022-11-20T06:51:05;99451.16;;;1.65;100.00
54512;BME280;40419;47.438;19.026;2022-11-20T06:53:33;99432.38;;;1.75;100.00
54512;BME280;40419;47.438;19.026;2022-11-20T06:55:59;99428.25;;;1.81;100.00
54512;BME280;40419;47.438;19.026;2022-11-20T06:58:29;99421.22;;;1.80;100.00
54512;BME280;40419;47.438;19.026;2022-11-20T07:01:03;99431.19;;;1.69;100.00
54512;BME280;40419;47.438;19.026;2022-11-20T07:03:31;99428.22;;;1.72;100.00
54512;BME280;40419;47.438;19.026;2022-11-20T07:06:01;99419.41;;;1.80;100.00
54512;BME280;40419;47.438;19.026;2022-11-20T07:08:30;99412.22;;;1.81;100.00
54512;BME280;40419;47.438;19.026;2022-11-20T07:10:59;99425.34;;;1.92;100.00
54512;BME280;40419;47.438;19.026;2022-11-20T07:13:28;99430.03;;;1.98;100.00
54512;BME280;40419;47.438;19.026;2022-11-20T07:16:00;99433.53;;;1.99;100.00
54512;BME280;40419;47.438;19.026;2022-11-20T07:18:30;99440.09;;;2.04;100.00
54512;BME280;40419;47.438;19.026;2022-11-20T07:21:02;99432.72;;;1.98;100.00
54512;BME280;40419;47.438;19.026;2022-11-20T07:23:28;99438.72;;;2.00;100.00
54512;BME280;40419;47.438;19.026;2022-11-20T07:25:56;99440.72;;;1.98;100.00
54512;BME280;40419;47.438;19.026;2022-11-20T07:28:24;99441.75;;;2.05;100.00
54512;BME280;40419;47.438;19.026;2022-11-20T07:30:53;99444.41;;;2.05;100.00
54512;BME280;40419;47.438;19.026;2022-11-20T07:33:23;99446.41;;;2.03;100.00
54512;BME280;40419;47.438;19.026;2022-11-20T07:35:51;99451.44;;;2.06;100.00
54512;BME280;40419;47.438;19.026;2022-11-20T07:38:19;99447.94;;;2.06;100.00
54512;BME280;40419;47.438;19.026;2022-11-20T07:40:44;99449.88;;;1.95;100.00
54512;BME280;40419;47.438;19.026;2022-11-20T07:43:09;99452.75;;;2.02;100.00
54512;BME280;40419;47.438;19.026;2022-11-20T07:45:37;99459.09;;;2.01;100.00
54512;BME280;40419;47.438;19.026;2022-11-20T07:48:03;99458.25;;;2.01;100.00
54512;BME280;40419;47.438;19.026;2022-11-20T07:50:29;99452.69;;;1.94;100.00
54512;BME280;40419;47.438;19.026;2022-11-20T07:53:01;99455.03;;;1.89;100.00
54512;BME280;40419;47.438;19.026;2022-11-20T07:55:29;99453.06;;;1.99;100.00
54512;BME280;40419;47.438;19.026;2022-11-20T07:57:55;99454.44;;;2.03;100.00
54512;BME280;40419;47.438;19.026;2022-11-20T08:00:24;99454.09;;;2.06;100.00
54512;BME280;40419;47.438;19.026;2022-11-20T08:02:50;99442.75;;;2.04;100.00
54512;BME280;40419;47.438;19.026;2022-11-20T08:05:20;99441.91;;;2.04;100.00
54512;BME280;40419;47.438;19.026;2022-11-20T08:07:46;99437.09;;;2.07;100.00
54512;BME280;40419;47.438;19.026;2022-11-20T08:10:17;99431.69;;;2.25;100.00
54512;BME280;40419;47.438;19.026;2022-11-20T08:15:32;99444.91;;;2.35;100.00
54512;BME280;40419;47.438;19.026;2022-11-20T08:18:06;99454.44;;;2.38;100.00
54512;BME280;40419;47.438;19.026;2022-11-20T08:20:34;99448.13;;;2.39;100.00
54512;BME280;40419;47.438;19.026;2022-11-20T08:23:01;99436.47;;;2.48;100.00
54512;BME280;40419;47.438;19.026;2022-11-20T08:25:30;99429.28;;;2.48;100.00
54512;BME280;40419;47.438;19.026;2022-11-20T08:28:04;99424.47;;;2.52;100.00
54512;BME280;40419;47.438;19.026;2022-11-20T08:30:30;99429.59;;;2.45;100.00
54512;BME280;40419;47.438;19.026;2022-11-20T08:33:06;99431.59;;;2.43;100.00
54512;BME280;40419;47.438;19.026;2022-11-20T08:35:38;99435.28;;;2.51;100.00
54512;BME280;40419;47.438;19.026;2022-11-20T08:38:05;99443.94;;;2.44;100.00
54512;BME280;40419;47.438;19.026;2022-11-20T08:40:31;99445.03;;;2.60;100.00
54512;BME280;40419;47.438;19.026;2022-11-20T08:42:57;99434.28;;;2.43;100.00
54512;BME280;40419;47.438;19.026;2022-11-20T08:45:25;99430.47;;;2.62;100.00
54512;BME280;40419;47.438;19.026;2022-11-20T08:47:53;99438.72;;;2.69;100.00
54512;BME280;40419;47.438;19.026;2022-11-20T08:50:23;99445.53;;;2.72;100.00
54512;BME280;40419;47.438;19.026;2022-11-20T08:52:48;99461.41;;;2.73;100.00
54512;BME280;40419;47.438;19.026;2022-11-20T08:55:14;99466.16;;;2.88;100.00
54512;BME280;40419;47.438;19.026;2022-11-20T08:57:39;99466.66;;;2.91;100.00
54512;BME280;40419;47.438;19.026;2022-11-20T09:00:11;99460.84;;;3.04;100.00
54512;BME280;40419;47.438;19.026;2022-11-20T09:02:38;99470.72;;;3.12;100.00
54512;BME280;40419;47.438;19.026;2022-11-20T09:05:15;99478.75;;;3.12;100.00
54512;BME280;40419;47.438;19.026;2022-11-20T09:07:41;99479.53;;;2.96;100.00
54512;BME280;40419;47.438;19.026;2022-11-20T09:10:11;99468.56;;;3.07;100.00
54512;BME280;40419;47.438;19.026;2022-11-20T09:12:37;99471.03;;;2.92;100.00
54512;BME280;40419;47.438;19.026;2022-11-20T09:15:21;99481.75;;;3.09;100.00
54512;BME280;40419;47.438;19.026;2022-11-20T09:18:07;99482.94;;;3.14;100.00
54512;BME280;40419;47.438;19.026;2022-11-20T09:20:42;99482.25;;;3.12;100.00
54512;BME280;40419;47.438;19.026;2022-11-20T09:23:14;99475.88;;;2.97;100.00
54512;BME280;40419;47.438;19.026;2022-11-20T09:25:39;99475.38;;;2.93;100.00
54512;BME280;40419;47.438;19.026;2022-11-20T09:28:05;99465.22;;;3.05;100.00
54512;BME280;40419;47.438;19.026;2022-11-20T09:30:30;99466.56;;;3.17;100.00
54512;BME280;40419;47.438;19.026;2022-11-20T09:33:01;99461.72;;;3.21;100.00
54512;BME280;40419;47.438;19.026;2022-11-20T09:35:26;99464.25;;;3.31;100.00
54512;BME280;40419;47.438;19.026;2022-11-20T09:37:54;99467.91;;;3.30;100.00
54512;BME280;40419;47.438;19.026;2022-11-20T09:40:21;99468.94;;;3.37;100.00
54512;BME280;40419;47.438;19.026;2022-11-20T09:54:16;99453.56;;;3.55;100.00
54512;BME280;40419;47.438;19.026;2022-11-20T09:57:14;99450.22;;;3.53;100.00
54512;BME280;40419;47.438;19.026;2022-11-20T09:59:56;99454.53;;;3.54;100.00
54512;BME280;40419;47.438;19.026;2022-11-20T10:05:26;99441.84;;;3.57;100.00
54512;BME280;40419;47.438;19.026;2022-11-20T10:10:47;99432.44;;;3.85;100.00
54512;BME280;40419;47.438;19.026;2022-11-20T10:18:11;99411.34;;;3.99;100.00
54512;BME280;40419;47.438;19.026;2022-11-20T10:26:10;99404.50;;;4.36;100.00
54512;BME280;40419;47.438;19.026;2022-11-20T10:29:09;99410.13;;;4.49;100.00
54512;BME280;40419;47.438;19.026;2022-11-20T10:31:40;99407.75;;;4.54;100.00
54512;BME280;40419;47.438;19.026;2022-11-20T10:34:28;99407.41;;;4.57;100.00
54512;BME280;40419;47.438;19.026;2022-11-20T10:37:05;99397.19;;;4.61;100.00
54512;BME280;40419;47.438;19.026;2022-11-20T10:40:06;99400.69;;;4.61;100.00
54512;BME280;40419;47.438;19.026;2022-11-20T10:50:47;99392.28;;;4.65;100.00
54512;BME280;40419;47.438;19.026;2022-11-20T10:56:02;99393.63;;;4.69;100.00
54512;BME280;40419;47.438;19.026;2022-11-20T11:01:14;99421.94;;;4.71;100.00
54512;BME280;40419;47.438;19.026;2022-11-20T11:03:47;99421.72;;;4.81;100.00
54512;BME280;40419;47.438;19.026;2022-11-20T11:09:00;99425.75;;;4.77;100.00
54512;BME280;40419;47.438;19.026;2022-11-20T11:11:33;99432.50;;;4.73;100.00
54512;BME280;40419;47.438;19.026;2022-11-20T11:16:30;99421.91;;;5.03;100.00
54512;BME280;40419;47.438;19.026;2022-11-20T11:19:06;99417.59;;;4.93;100.00
54512;BME280;40419;47.438;19.026;2022-11-20T11:21:32;99418.94;;;4.97;100.00
54512;BME280;40419;47.438;19.026;2022-11-20T11:24:03;99421.63;;;4.97;100.00
54512;BME280;40419;47.438;19.026;2022-11-20T11:26:29;99430.09;;;5.09;100.00
54512;BME280;40419;47.438;19.026;2022-11-20T11:29:01;99423.47;;;5.20;100.00
54512;BME280;40419;47.438;19.026;2022-11-20T11:31:33;99416.75;;;5.24;100.00
54512;BME280;40419;47.438;19.026;2022-11-20T11:34:07;99412.75;;;5.20;100.00
54512;BME280;40419;47.438;19.026;2022-11-20T11:36:36;99416.75;;;5.24;100.00
54512;BME280;40419;47.438;19.026;2022-11-20T11:39:10;99408.50;;;5.26;100.00
54512;BME280;40419;47.438;19.026;2022-11-20T11:41:39;99404.75;;;5.12;100.00
54512;BME280;40419;47.438;19.026;2022-11-20T11:44:19;99404.34;;;5.00;100.00
54512;BME280;40419;47.438;19.026;2022-11-20T11:47:05;99396.75;;;5.04;100.00
54512;BME280;40419;47.438;19.026;2022-11-20T11:49:38;99395.31;;;5.16;100.00
54512;BME280;40419;47.438;19.026;2022-11-20T11:52:17;99385.13;;;5.11;100.00
54512;BME280;40419;47.438;19.026;2022-11-20T12:05:13;99391.03;;;5.30;100.00
54512;BME280;40419;47.438;19.026;2022-11-20T12:07:47;99390.19;;;5.29;100.00
54512;BME280;40419;47.438;19.026;2022-11-20T12:10:23;99388.88;;;5.25;100.00
54512;BME280;40419;47.438;19.026;2022-11-20T12:13:21;99395.63;;;5.21;100.00
54512;BME280;40419;47.438;19.026;2022-11-20T12:15:53;99384.81;;;5.29;100.00
54512;BME280;40419;47.438;19.026;2022-11-20T12:18:20;99391.28;;;5.20;100.00
54512;BME280;40419;47.438;19.026;2022-11-20T12:20:58;99385.53;;;5.23;100.00
54512;BME280;40419;47.438;19.026;2022-11-20T12:28:59;99369.44;;;5.00;100.00
54512;BME280;40419;47.438;19.026;2022-11-20T12:39:49;99376.25;;;5.11;100.00
54512;BME280;40419;47.438;19.026;2022-11-20T13:06:54;99395.25;;;5.01;100.00
54512;BME280;40419;47.438;19.026;2022-11-20T13:09:20;99392.25;;;5.04;100.00
54512;BME280;40419;47.438;19.026;2022-11-20T13:15:00;99396.03;;;5.10;100.00
54512;BME280;40419;47.438;19.026;2022-11-20T13:20:15;99402.38;;;5.17;100.00
54512;BME280;40419;47.438;19.026;2022-11-20T13:22:49;99393.84;;;5.13;100.00
54512;BME280;40419;47.438;19.026;2022-11-20T13:25:38;99389.78;;;5.18;100.00
54512;BME280;40419;47.438;19.026;2022-11-20T13:30:50;99372.03;;;5.17;100.00
54512;BME280;40419;47.438;19.026;2022-11-20T13:33:33;99371.97;;;5.02;100.00
54512;BME280;40419;47.438;19.026;2022-11-20T13:36:06;99373.94;;;5.08;100.00
54512;BME280;40419;47.438;19.026;2022-11-20T13:38:47;99357.59;;;4.94;100.00
54512;BME280;40419;47.438;19.026;2022-11-20T13:41:53;99351.25;;;4.87;100.00
54512;BME280;40419;47.438;19.026;2022-11-20T13:46:45;99355.16;;;4.85;100.00
54512;BME280;40419;47.438;19.026;2022-11-20T13:51:51;99360.81;;;4.90;100.00
54512;BME280;40419;47.438;19.026;2022-11-20T13:55:12;99359.47;;;4.86;100.00
54512;BME280;40419;47.438;19.026;2022-11-20T14:02:28;99346.84;;;4.71;100.00
54512;BME280;40419;47.438;19.026;2022-11-20T14:04:58;99342.84;;;4.67;100.00
54512;BME280;40419;47.438;19.026;2022-11-20T14:07:45;99342.38;;;4.64;100.00
54512;BME280;40419;47.438;19.026;2022-11-20T14:10:25;99346.53;;;4.66;100.00
54512;BME280;40419;47.438;19.026;2022-11-20T14:12:56;99346.88;;;4.63;100.00
54512;BME280;40419;47.438;19.026;2022-11-20T14:15:32;99344.25;;;4.55;100.00
54512;BME280;40419;47.438;19.026;2022-11-20T14:17:59;99351.63;;;4.53;100.00
54512;BME280;40419;47.438;19.026;2022-11-20T14:20:28;99351.97;;;4.50;100.00
54512;BME280;40419;47.438;19.026;2022-11-20T14:22:57;99363.91;;;4.47;100.00
54512;BME280;40419;47.438;19.026;2022-11-20T14:25:27;99358.31;;;4.57;100.00
54512;BME280;40419;47.438;19.026;2022-11-20T14:27:56;99366.88;;;4.52;100.00
54512;BME280;40419;47.438;19.026;2022-11-20T14:30:25;99372.25;;;4.52;100.00
54512;BME280;40419;47.438;19.026;2022-11-20T14:32:55;99372.78;;;4.48;100.00
54512;BME280;40419;47.438;19.026;2022-11-20T14:35:25;99375.28;;;4.49;100.00
54512;BME280;40419;47.438;19.026;2022-11-20T14:37:51;99377.63;;;4.52;100.00
54512;BME280;40419;47.438;19.026;2022-11-20T14:40:38;99378.66;;;4.43;100.00
54512;BME280;40419;47.438;19.026;2022-11-20T14:45:52;99388.47;;;4.28;100.00
54512;BME280;40419;47.438;19.026;2022-11-20T14:48:28;99384.63;;;4.22;100.00
54512;BME280;40419;47.438;19.026;2022-11-20T14:51:00;99391.34;;;4.18;100.00
54512;BME280;40419;47.438;19.026;2022-11-20T14:53:25;99396.38;;;4.13;100.00
54512;BME280;40419;47.438;19.026;2022-11-20T14:55:59;99395.56;;;4.04;100.00
54512;BME280;40419;47.438;19.026;2022-11-20T14:58:31;99397.91;;;4.07;100.00
54512;BME280;40419;47.438;19.026;2022-11-20T15:01:01;99389.22;;;4.05;100.00
54512;BME280;40419;47.438;19.026;2022-11-20T15:03:39;99408.13;;;3.95;100.00
54512;BME280;40419;47.438;19.026;2022-11-20T15:06:11;99407.31;;;3.95;100.00
54512;BME280;40419;47.438;19.026;2022-11-20T15:08:50;99403.47;;;3.89;100.00
54512;BME280;40419;47.438;19.026;2022-11-20T15:11:27;99409.69;;;3.81;100.00
54512;BME280;40419;47.438;19.026;2022-11-20T15:13:54;99405.84;;;3.84;100.00
54512;BME280;40419;47.438;19.026;2022-11-20T15:16:22;99407.19;;;3.71;100.00
54512;BME280;40419;47.438;19.026;2022-11-20T15:18:49;99399.81;;;3.65;100.00